AirNav   Air Wisconsin pilot careers
 
 825 users online  

9KS1 Hartland Airport
Wellsville, Kansas, USA

GOING TO WELLSVILLE?


FAA INFORMATION EFFECTIVE 09 NOVEMBER 2017

Location

FAA Identifier: 9KS1
Lat/Long: 38-39-34.0000N / 095-05-32.0000W
38-39.566667N / 095-05.533333W
38.6594444 / -95.0922222
(estimated)
Elevation: 993 ft. / 303 m (estimated)
Variation: 05E (1995)
From city: 3 miles S of WELLSVILLE, KS
Time zone: UTC -6 (UTC -5 during Daylight Saving Time)
Zip code: 66092

Airport Operations

Airport use: Private use. Permission required prior to landing
Control tower: no
ARTCC: KANSAS CITY CENTER
FSS: WICHITA FLIGHT SERVICE STATION
Attendance: UNATNDD
Wind indicator: yes
Segmented circle: no

Airport Communications

WX AWOS-3 at OWI (10 nm SW): 118.25 (785-242-2185)
WX ASOS at IXD (14 nm NE): 135.325 (913-780-6987)

Nearby radio navigation aids

VOR radial/distance  VOR name  Freq  Var
TOPr138/35.7TOPEKA VORTAC117.8005E
BUMr302/36.7BUTLER VORTAC115.9007E

 
NDB name  Hdg/Dist  Freq  Var  ID
BOYD049/36.624505EUKL ..- -.- .-..

Airport Services

Runway Information

Runway 18/36

Dimensions: 2600 x 60 ft. / 792 x 18 m
Surface: turf
RUNWAY 18  RUNWAY 36
Traffic pattern: leftright

Airport Ownership and Management from official FAA records

Ownership: Privately-owned
Owner: GARY D HART
4612 RENO RD
WELLSVILLE, KS 66092
Phone 785-883-4152
Manager: GARY D HART
4612 RENO RD
WELLSVILLE, KS 66092
Phone 785-883-4152

Airport Operational Statistics

Aircraft based on the field: 3
Single engine airplanes: 3
    

Instrument Procedures

There are no published instrument procedures at 9KS1.

Some nearby airports with instrument procedures:

KOWI - Ottawa Municipal Airport (10 nm SW)
K81 - Miami County Airport (11 nm SE)
KIXD - New Century AirCenter Airport (14 nm NE)
KOJC - Johnson County Executive Airport (20 nm NE)
KLWC - Lawrence Municipal Airport (22 nm N)
 
Loc | Ops | Rwys | IFR | FBO | Links
Com | Nav | Svcs | Stats | Notes

Kansas City Aviation Department
 
Area around 9KS1 (Hartland Airport)
 
Road maps at: MapQuest Bing Google
 
Aerial photo
No photo
 
Sectional chart

 
Airport distance calculator
Flying to Hartland Airport? Find the distance to fly.

From to 9KS1

Sunrise and sunset
Times for 21-Nov-2017
 Local
(UTC-6)
 Zulu
(UTC)
Morning civil twilight06:4112:41
Sunrise07:1013:10
Sunset17:0223:02
Evening civil twilight17:3123:31

Current date and time
Zulu (UTC)  21-Nov-2017 13:12:56
Local (UTC-6)  21-Nov-2017 07:12:56
 
METAR
KOWI 
10nm SW 
211255Z AUTO 00000KT 10SM BKN095 BKN120 05/03 A2985 RMK AO2
KIXD 
14nm NE 
211253Z 26004KT 10SM CLR 07/01 A2986 RMK AO2 SLP112 T00670006
KOJC 
20nm NE 
211253Z 26005KT 10SM CLR 07/00 A2985 RMK AO2 SLP107 T00720000
TAF
KIXD 
14nm NE 
211120Z 2112/2212 27008KT P6SM BKN120 FM211600 35017G26KT P6SM SCT250 FM220000 34012KT P6SM SKC FM220400 34007KT P6SM SKC
NOTAMs
Click for the latest NOTAMs
NOTAMs are issued by the DoD/FAA and will open in a separate window not controlled by AirNav.

 

 
 

Would you like to see your business listed on this page?

 If your business provides an interesting product or service to pilots, flight crews, aircraft, or users of the Hartland Airport, you should consider listing it here.  To start the listing process, click on the button below
 
Add a business
 

Other Pages about Hartland Airport

Update a link
 
Copyright © AirNav, LLC. All rights reserved. Privacy Policy  Contact